createdAt,value
2024-05-09T00:01:26.605Z,95736.22
2024-05-09T00:04:37.104Z,95720.88
2024-05-09T00:07:50.152Z,95728.66
2024-05-09T00:11:00.668Z,95717.41
2024-05-09T00:14:11.442Z,95709.41
2024-05-09T00:17:22.144Z,95722.78
2024-05-09T00:20:37.914Z,95722.13
2024-05-09T00:23:53.530Z,95713.44
2024-05-09T00:27:04.238Z,95709.59
2024-05-09T00:30:21.458Z,95706.03
2024-05-09T00:33:39.499Z,95698.38
2024-05-09T00:36:50.095Z,95691.97
2024-05-09T00:40:03.627Z,95710.31
2024-05-09T00:43:15.263Z,95701.22
2024-05-09T00:46:26.151Z,95708.50
2024-05-09T00:49:37.231Z,95696.03
2024-05-09T00:52:48.993Z,95699.97
2024-05-09T00:56:03.279Z,95696.66
2024-05-09T00:59:14.593Z,95697.69
2024-05-09T01:02:26.011Z,95690.97
2024-05-09T01:05:36.420Z,95685.38
2024-05-09T01:08:46.999Z,95686.97
2024-05-09T01:12:00.088Z,95689.97
2024-05-09T01:15:11.504Z,95685.91
2024-05-09T01:18:21.933Z,95693.44
2024-05-09T01:21:33.556Z,95697.63
2024-05-09T01:24:46.604Z,95693.13
2024-05-09T01:27:56.875Z,95691.13
2024-05-09T01:31:07.546Z,95696.56
2024-05-09T01:38:32.590Z,95697.75
2024-05-09T01:41:45.571Z,95697.22
2024-05-09T01:44:55.816Z,95698.22
2024-05-09T01:48:06.521Z,95685.28
2024-05-09T01:51:17.237Z,95690.50
2024-05-09T01:54:27.582Z,95685.47
2024-05-09T01:57:40.589Z,95696.66
2024-05-09T02:00:51.873Z,95689.69
2024-05-09T02:07:30.118Z,95690.97
2024-05-09T02:10:40.560Z,95694.28
2024-05-09T02:13:54.380Z,95689.06
2024-05-09T02:17:04.861Z,95687.75
2024-05-09T02:20:22.604Z,95696.69
2024-05-09T02:23:40.015Z,95693.81
2024-05-09T02:26:50.325Z,95685.06
2024-05-09T02:30:09.896Z,95696.56
2024-05-09T02:33:25.782Z,95692.81
2024-05-09T02:36:36.332Z,95697.13
2024-05-09T02:39:44.044Z,95689.63
2024-05-09T02:42:54.370Z,95691.63
2024-05-09T02:46:04.993Z,95693.81
2024-05-09T02:49:15.968Z,95689.06
2024-05-09T02:52:23.751Z,95687.22
2024-05-09T02:55:34.064Z,95690.34
2024-05-09T02:58:41.798Z,95684.22
2024-05-09T03:01:54.818Z,95679.25
2024-05-09T03:05:02.720Z,95678.13
2024-05-09T03:08:13.790Z,95675.09
2024-05-09T03:11:22.279Z,95685.84
2024-05-09T03:14:32.700Z,95686.75
2024-05-09T03:17:46.543Z,95683.56
2024-05-09T03:20:54.532Z,95685.56
2024-05-09T03:24:04.935Z,95679.25
2024-05-09T03:27:12.915Z,95677.22
2024-05-09T03:30:31.166Z,95678.22
2024-05-09T03:33:53.048Z,95680.91
2024-05-09T03:37:03.675Z,95683.16
2024-05-09T03:40:21.049Z,95678.50
2024-05-09T03:43:36.540Z,95682.56
2024-05-09T03:46:46.976Z,95673.56
2024-05-09T03:49:57.347Z,95679.50
2024-05-09T03:53:08.151Z,95678.88
2024-05-09T03:56:18.600Z,95678.97
2024-05-09T03:59:26.524Z,95685.75
2024-05-09T04:02:37.158Z,95686.31
2024-05-09T04:05:47.838Z,95689.72
2024-05-09T04:08:58.303Z,95686.50
2024-05-09T04:12:11.309Z,95696.03
2024-05-09T04:15:19.095Z,95687.75
2024-05-09T04:18:30.135Z,95695.47
2024-05-09T04:21:41.210Z,95696.38
2024-05-09T04:24:52.842Z,95698.47
2024-05-09T04:28:00.679Z,95706.28
2024-05-09T04:31:11.013Z,95713.28
2024-05-09T04:34:18.938Z,95710.91
2024-05-09T04:37:33.143Z,95715.19
2024-05-09T04:40:40.908Z,95710.91
2024-05-09T04:43:52.771Z,95718.16
2024-05-09T04:47:01.707Z,95716.50
2024-05-09T04:50:17.698Z,95721.28
2024-05-09T04:53:35.103Z,95724.41
2024-05-09T04:56:45.828Z,95730.56
2024-05-09T04:59:53.679Z,95729.66
2024-05-09T05:03:06.901Z,95720.09
2024-05-09T05:06:15.778Z,95721.59
2024-05-09T05:09:29.022Z,95725.91
2024-05-09T05:12:55.560Z,95724.69
2024-05-09T05:16:06.086Z,95725.91
2024-05-09T05:19:16.955Z,95735.00
2024-05-09T05:22:27.970Z,95730.75
2024-05-09T05:25:38.320Z,95737.84
2024-05-09T05:28:51.075Z,95729.50
2024-05-09T05:31:58.938Z,95738.66
2024-05-09T05:35:09.481Z,95738.22
2024-05-09T05:38:23.740Z,95735.81
2024-05-09T05:41:36.720Z,95731.63
2024-05-09T05:44:47.059Z,95730.59
2024-05-09T05:47:55.261Z,95744.34
2024-05-09T05:51:07.717Z,95743.59
2024-05-09T05:54:15.573Z,95745.53
2024-05-09T05:57:31.015Z,95751.41
2024-05-09T06:00:43.233Z,95742.75
2024-05-09T06:03:53.957Z,95740.84
2024-05-09T06:07:01.793Z,95740.47
2024-05-09T06:10:17.668Z,95739.34
2024-05-09T06:13:32.436Z,95748.47
2024-05-09T06:16:43.554Z,95749.41
2024-05-09T06:19:51.507Z,95756.97
2024-05-09T06:23:03.059Z,95747.38
2024-05-09T06:26:14.537Z,95746.69
2024-05-09T06:29:25.054Z,95752.66
2024-05-09T06:32:35.582Z,95759.66
2024-05-09T06:35:43.792Z,95757.25
2024-05-09T06:38:54.282Z,95754.63
2024-05-09T06:42:02.000Z,95758.19
2024-05-09T06:45:15.760Z,95754.66
2024-05-09T06:48:23.855Z,95754.59
2024-05-09T06:51:38.513Z,95758.28
2024-05-09T06:54:48.797Z,95762.78
2024-05-09T06:57:57.700Z,95759.81
2024-05-09T07:01:10.715Z,95763.81
2024-05-09T07:04:21.229Z,95765.69
2024-05-09T07:07:31.647Z,95759.91
2024-05-09T07:10:39.521Z,95764.47
2024-05-09T07:13:50.183Z,95763.53
2024-05-09T07:17:03.473Z,95768.56
2024-05-09T07:20:16.603Z,95773.44
2024-05-09T07:23:33.825Z,95763.28
2024-05-09T07:26:41.659Z,95764.41
2024-05-09T07:29:51.999Z,95761.25
2024-05-09T07:33:05.192Z,95768.53
2024-05-09T07:36:15.873Z,95761.25
2024-05-09T07:39:24.659Z,95759.22
2024-05-09T07:42:35.127Z,95765.03
2024-05-09T07:45:51.284Z,95758.97
2024-05-09T07:53:30.352Z,95751.59
2024-05-09T07:55:49.340Z,95749.78
2024-05-09T07:58:59.750Z,95737.03
2024-05-09T08:02:07.873Z,95748.03
2024-05-09T08:05:21.088Z,95752.81
2024-05-09T08:08:31.652Z,95751.16
2024-05-09T08:11:43.073Z,95747.22
2024-05-09T08:14:55.725Z,95741.50
2024-05-09T08:18:07.645Z,95746.53
2024-05-09T08:21:21.672Z,95749.50
2024-05-09T08:24:34.474Z,95751.22
2024-05-09T08:27:42.863Z,95750.41
2024-05-09T08:30:54.230Z,95745.22
2024-05-09T08:34:05.738Z,95743.75
2024-05-09T08:37:22.328Z,95738.25
2024-05-09T08:40:37.199Z,95747.84
2024-05-09T08:43:49.551Z,95740.69
2024-05-09T08:46:57.367Z,95740.13
2024-05-09T08:50:23.907Z,95733.84
2024-05-09T08:53:44.259Z,95736.84
2024-05-09T08:56:55.456Z,95737.31
2024-05-09T09:00:10.017Z,95738.66
2024-05-09T09:03:29.920Z,95734.06
2024-05-09T09:06:38.873Z,95736.44
2024-05-09T09:09:54.704Z,95728.84
2024-05-09T09:13:09.892Z,95738.44
2024-05-09T09:16:20.601Z,95733.78
2024-05-09T09:19:30.169Z,95729.00
2024-05-09T09:22:41.899Z,95722.28
2024-05-09T09:25:52.937Z,95722.28
2024-05-09T09:29:04.611Z,95729.16
2024-05-09T09:32:15.859Z,95724.38
2024-05-09T09:35:23.820Z,95730.47
2024-05-09T09:38:39.168Z,95735.34
2024-05-09T09:41:50.469Z,95732.53
2024-05-09T09:45:05.065Z,95724.59
2024-05-09T09:48:16.605Z,95733.59
2024-05-09T09:51:28.262Z,95732.06
2024-05-09T09:54:40.173Z,95732.34
2024-05-09T09:57:50.630Z,95728.31
2024-05-09T10:01:01.155Z,95736.81
2024-05-09T10:04:12.941Z,95746.81
2024-05-09T10:07:27.703Z,95738.84
2024-05-09T10:10:36.522Z,95731.00
2024-05-09T10:13:50.802Z,95736.19
2024-05-09T10:17:07.853Z,95733.09
2024-05-09T10:20:21.862Z,95727.25
2024-05-09T10:23:36.558Z,95735.09
2024-05-09T10:26:53.487Z,95723.22
2024-05-09T10:30:14.380Z,95730.06
2024-05-09T10:33:28.225Z,95727.97
2024-05-09T10:36:43.228Z,95728.44
2024-05-09T10:39:56.008Z,95735.56
2024-05-09T10:43:06.488Z,95728.31
2024-05-09T10:46:20.142Z,95726.34
2024-05-09T10:49:29.941Z,95718.34
2024-05-09T10:52:40.051Z,95729.06
2024-05-09T10:55:56.749Z,95722.38
2024-05-09T10:59:06.938Z,95713.28
2024-05-09T11:02:18.841Z,95718.53
2024-05-09T11:05:30.769Z,95719.63
2024-05-09T11:08:41.925Z,95713.03
2024-05-09T11:11:49.757Z,95715.94
2024-05-09T11:15:00.026Z,95713.31
2024-05-09T11:18:24.977Z,95707.09
2024-05-09T11:21:36.212Z,95702.28
2024-05-09T11:24:47.441Z,95711.78
2024-05-09T11:27:59.179Z,95708.50
2024-05-09T11:31:11.242Z,95707.63
2024-05-09T11:34:23.956Z,95699.63
2024-05-09T11:37:36.834Z,95707.06
2024-05-09T11:40:44.672Z,95707.75
2024-05-09T11:43:54.663Z,95706.88
2024-05-09T11:47:04.888Z,95706.91
2024-05-09T11:50:26.808Z,95707.84
2024-05-09T11:53:37.805Z,95699.75
2024-05-09T11:56:48.030Z,95703.94
2024-05-09T11:59:57.389Z,95701.41
2024-05-09T12:03:08.406Z,95699.44
2024-05-09T12:06:18.627Z,95686.94
2024-05-09T12:09:28.792Z,95688.47
2024-05-09T12:12:37.414Z,95688.03
2024-05-09T12:15:50.358Z,95682.09
2024-05-09T12:18:58.851Z,95680.22
2024-05-09T12:22:11.676Z,95685.00
2024-05-09T12:25:19.477Z,95680.88
2024-05-09T12:28:29.959Z,95682.53
2024-05-09T12:31:37.667Z,95678.34
2024-05-09T12:34:47.915Z,95679.84
2024-05-09T12:37:58.135Z,95678.53
2024-05-09T12:41:09.194Z,95672.91
2024-05-09T12:44:19.495Z,95674.72
2024-05-09T12:47:27.233Z,95668.78
2024-05-09T12:50:38.496Z,95666.84
2024-05-09T12:53:48.697Z,95664.00
2024-05-09T12:56:58.738Z,95661.75
2024-05-09T13:00:14.186Z,95661.81
2024-05-09T13:03:30.499Z,95653.09
2024-05-09T13:06:38.114Z,95650.22
2024-05-09T13:09:50.952Z,95642.53
2024-05-09T13:12:58.488Z,95640.34
2024-05-09T13:16:09.693Z,95637.06
2024-05-09T13:19:17.447Z,95635.53
2024-05-09T13:22:27.500Z,95629.16
2024-05-09T13:25:38.253Z,95633.59
2024-05-09T13:28:48.681Z,95622.03
2024-05-09T13:31:59.122Z,95620.78
2024-05-09T13:35:07.103Z,95620.50
2024-05-09T13:38:17.305Z,95619.41
2024-05-09T13:41:30.105Z,95622.91
2024-05-09T13:44:37.886Z,95612.16
2024-05-09T13:47:48.721Z,95610.22
2024-05-09T13:50:59.262Z,95613.72
2024-05-09T13:54:09.904Z,95601.63
2024-05-09T13:57:20.723Z,95612.53
2024-05-09T14:00:42.681Z,95599.28
2024-05-09T14:03:55.102Z,95598.75
2024-05-09T14:07:05.950Z,95602.53
2024-05-09T14:10:22.620Z,95589.69
2024-05-09T14:13:38.841Z,95591.38
2024-05-09T14:16:46.598Z,95580.94
2024-05-09T14:20:04.788Z,95580.31
2024-05-09T14:23:12.379Z,95578.22
2024-05-09T14:26:23.544Z,95589.31
2024-05-09T14:29:35.369Z,95589.28
2024-05-09T14:32:45.858Z,95592.28
2024-05-09T14:35:53.962Z,95589.72
2024-05-09T14:39:04.183Z,95586.28
2024-05-09T14:42:11.882Z,95589.34
2024-05-09T14:45:24.879Z,95579.78
2024-05-09T14:48:35.968Z,95586.59
2024-05-09T14:51:50.549Z,95587.16
2024-05-09T14:55:00.716Z,95582.38
2024-05-09T14:58:13.316Z,95569.50
2024-05-09T15:01:24.969Z,95569.38
2024-05-09T15:04:35.362Z,95568.50
2024-05-09T15:07:47.610Z,95565.97
2024-05-09T15:10:57.901Z,95567.66
2024-05-09T15:14:05.643Z,95562.03
2024-05-09T15:17:19.395Z,95552.56
2024-05-09T15:20:34.709Z,95549.84
2024-05-09T15:23:44.239Z,95553.72
2024-05-09T15:26:54.576Z,95549.31
2024-05-09T15:30:05.625Z,95550.53
2024-05-09T15:33:21.910Z,95544.03
2024-05-09T15:36:32.309Z,95544.22
2024-05-09T15:39:40.510Z,95546.78
2024-05-09T15:42:51.690Z,95543.16
2024-05-09T15:45:59.454Z,95545.84
2024-05-09T15:49:12.888Z,95538.94
2024-05-09T15:52:20.549Z,95548.50
2024-05-09T15:55:34.422Z,95540.75
2024-05-09T15:58:44.960Z,95540.31
2024-05-09T16:01:55.692Z,95530.84
2024-05-09T16:05:06.660Z,95537.09
2024-05-09T16:08:17.983Z,95543.59
2024-05-09T16:11:27.965Z,95539.56
2024-05-09T16:14:35.492Z,95533.53
2024-05-09T16:17:45.745Z,95536.63
2024-05-09T16:21:00.238Z,95540.69
2024-05-09T16:24:10.557Z,95537.28
2024-05-09T16:27:19.194Z,95534.78
2024-05-09T16:30:34.800Z,95538.00
2024-05-09T16:33:46.251Z,95533.84
2024-05-09T16:36:59.309Z,95524.16
2024-05-09T16:40:21.770Z,95529.94
2024-05-09T16:43:39.837Z,95532.19
2024-05-09T16:46:49.951Z,95529.28
2024-05-09T16:49:57.619Z,95530.41
2024-05-09T16:53:10.291Z,95522.34
2024-05-09T16:56:18.299Z,95522.34
2024-05-09T16:59:28.973Z,95523.69
2024-05-09T17:02:40.090Z,95524.72
2024-05-09T17:05:51.199Z,95522.34
2024-05-09T17:09:08.644Z,95518.22
2024-05-09T17:12:22.161Z,95516.63
2024-05-09T17:15:32.640Z,95525.22
2024-05-09T17:18:43.491Z,95518.00
2024-05-09T17:21:54.081Z,95522.34
2024-05-09T17:25:07.583Z,95508.56
2024-05-09T17:28:15.271Z,95515.72
2024-05-09T17:31:26.073Z,95521.41
2024-05-09T17:34:34.657Z,95513.47
2024-05-09T17:37:45.230Z,95518.84
2024-05-09T17:40:55.656Z,95521.22
2024-05-09T17:44:09.712Z,95519.88
2024-05-09T17:47:18.185Z,95520.91
2024-05-09T17:50:35.227Z,95525.00
2024-05-09T17:53:45.244Z,95530.09
2024-05-09T17:56:58.927Z,95524.53
2024-05-09T18:00:11.616Z,95525.59
2024-05-09T18:03:26.194Z,95524.19
2024-05-09T18:06:34.319Z,95531.75
2024-05-09T18:09:44.897Z,95519.34
2024-05-09T18:12:57.906Z,95530.41
2024-05-09T18:16:06.843Z,95527.81
2024-05-09T18:19:18.500Z,95529.47
2024-05-09T18:22:29.343Z,95533.41
2024-05-09T18:25:37.587Z,95533.00
2024-05-09T18:28:50.943Z,95539.59
2024-05-09T18:31:59.271Z,95535.22
2024-05-09T18:35:10.178Z,95539.69
2024-05-09T18:38:18.664Z,95536.94
2024-05-09T18:41:30.058Z,95544.66
2024-05-09T18:44:40.416Z,95545.44
2024-05-09T18:47:50.819Z,95541.44
2024-05-09T18:50:58.765Z,95540.31
2024-05-09T18:54:09.216Z,95552.13
2024-05-09T18:57:19.584Z,95545.88
2024-05-09T19:00:35.736Z,95546.59
2024-05-09T19:03:49.100Z,95549.94
2024-05-09T19:06:56.737Z,95552.09
2024-05-09T19:10:14.454Z,95561.47
2024-05-09T19:13:28.421Z,95564.88
2024-05-09T19:16:38.646Z,95569.06
2024-05-09T19:19:49.311Z,95575.16
2024-05-09T19:22:56.829Z,95576.84
2024-05-09T19:26:08.559Z,95574.69
2024-05-09T19:29:16.037Z,95580.13
2024-05-09T19:32:29.340Z,95583.88
2024-05-09T19:35:36.931Z,95584.09
2024-05-09T19:38:48.325Z,95580.25
2024-05-09T19:41:58.461Z,95590.38
2024-05-09T19:45:07.667Z,95579.53
2024-05-09T19:48:21.063Z,95588.72
2024-05-09T19:51:28.940Z,95578.59
2024-05-09T19:54:38.994Z,95579.72
2024-05-09T19:57:46.621Z,95578.75
2024-05-09T20:00:56.780Z,95581.81
2024-05-09T20:04:07.217Z,95593.72
2024-05-09T20:07:17.591Z,95590.66
2024-05-09T20:10:31.411Z,95589.72
2024-05-09T20:13:43.723Z,95594.78
2024-05-09T20:16:51.202Z,95591.06
2024-05-09T20:20:07.328Z,95598.09
2024-05-09T20:23:15.157Z,95586.44
2024-05-09T20:26:28.627Z,95590.38
2024-05-09T20:29:37.390Z,95598.03
2024-05-09T20:32:47.797Z,95595.75
2024-05-09T20:36:02.367Z,95590.97
2024-05-09T20:39:12.890Z,95588.03
2024-05-09T20:42:20.632Z,95594.22
2024-05-09T20:45:31.416Z,95592.72
2024-05-09T20:48:39.393Z,95593.44
2024-05-09T20:51:52.672Z,95592.00
2024-05-09T20:55:00.542Z,95591.06
2024-05-09T20:58:11.983Z,95580.78
2024-05-09T21:01:19.721Z,95584.47
2024-05-09T21:04:30.678Z,95583.97
2024-05-09T21:07:41.500Z,95583.13
2024-05-09T21:10:52.749Z,95581.06
2024-05-09T21:14:01.408Z,95588.25
2024-05-09T21:17:11.718Z,95589.25
2024-05-09T21:20:24.300Z,95588.75
2024-05-09T21:23:43.040Z,95591.44
2024-05-09T21:26:51.036Z,95578.69
2024-05-09T21:30:01.060Z,95592.66
2024-05-09T21:33:10.390Z,95592.03
2024-05-09T21:36:21.855Z,95582.91
2024-05-09T21:39:32.675Z,95582.78
2024-05-09T21:42:42.761Z,95583.16
2024-05-09T21:45:52.871Z,95579.16
2024-05-09T21:49:00.448Z,95575.00
2024-05-09T21:52:10.398Z,95577.84
2024-05-09T21:55:20.612Z,95573.19
2024-05-09T21:58:30.555Z,95575.84
2024-05-09T22:01:38.439Z,95576.69
2024-05-09T22:04:48.736Z,95584.81
2024-05-09T22:07:57.062Z,95579.81
2024-05-09T22:11:10.090Z,95584.47
2024-05-09T22:14:21.188Z,95577.88
2024-05-09T22:17:28.621Z,95578.88
2024-05-09T22:20:43.670Z,95576.91
2024-05-09T22:23:55.642Z,95574.06
2024-05-09T22:27:08.909Z,95579.06
2024-05-09T22:30:23.783Z,95580.38
2024-05-09T22:33:37.964Z,95570.44
2024-05-09T22:36:45.841Z,95580.22
2024-05-09T22:39:55.976Z,95574.09
2024-05-09T22:43:06.363Z,95578.56
2024-05-09T22:46:16.626Z,95572.13
2024-05-09T22:49:26.635Z,95576.09
2024-05-09T22:52:34.064Z,95569.00
2024-05-09T22:55:44.515Z,95567.81
2024-05-09T22:58:54.623Z,95568.16
2024-05-09T23:02:07.743Z,95569.31
2024-05-09T23:05:15.520Z,95569.31
2024-05-09T23:08:25.736Z,95566.00
2024-05-09T23:11:33.140Z,95567.63
2024-05-09T23:14:46.699Z,95559.84
2024-05-09T23:17:57.297Z,95557.34
2024-05-09T23:21:08.620Z,95555.38
2024-05-09T23:24:18.632Z,95555.06
2024-05-09T23:27:26.267Z,95548.25
2024-05-09T23:30:40.785Z,95545.13
2024-05-09T23:33:49.505Z,95548.09
2024-05-09T23:36:59.756Z,95535.69
2024-05-09T23:40:09.730Z,95536.84
2024-05-09T23:43:19.977Z,95533.72
2024-05-09T23:46:30.099Z,95535.34
2024-05-09T23:49:40.198Z,95521.63
2024-05-09T23:52:47.641Z,95522.09
2024-05-09T23:55:58.138Z,95521.94
2024-05-09T23:59:08.787Z,95527.38
